Philadelphia, Pennsylvania
Traffic Map
Current Weather Conditions
Philadelphia, Pennsylvania
Broken Clouds
Broken Clouds
17°
Feels Like: 17°
Wind Chill: 17° Ceiling: 28000
Heat Index: 17° Visibility: 10mi
Dew Point: Wind: 8mph
Humidity: 62% Direction: 10° (N)
Pressure: 30.14in Gusts: 0mph
Raw Report DataKPHL 290954Z 01007KT 10SM SCT220 BKN280 17/09 A3014 RMK AO2 SLP206 T01670094
Traffic Incident Summary
Active as of:
Severity:
Category:
InformationThere was an issue retrieving the traffic information for this location. Please try a different location or try again shortly.
Advertisements
Track Severe Weather on mobile